Indianapolis, IN

12:41 PM EST on January 27, 2015 (GMT -0500)
Indianapolis International | Change Station
CLOSE
Current Station
Airport
Location: Indianapolis,
Elevation: 807 ft
Nearby Weather Stations

Elev 807 ft 39.71 °N, 86.30 °W | Updated 35 minutes ago

Overcast
Overcast
26 °F
Feels Like 22 °F
N
4
Wind Variable Wind from Variable

Today
High -- | Low -- °F
--% Chance of Precip.
Yesterday
High -- | Low -- °F
Precip. -- in
7:57 AM 5:58 PM
First Quarter, 56% visible
Pressure 30.11 in
Visibility 9.0 miles
Clouds Scattered Clouds 1800 ft
Scattered Clouds 2700 ft
Overcast 4900 ft
Windchill 22 °F
Dew Point 20 °F
Humidity 78%
Rainfall 0.01 in
Snow Depth Not available.
UV 1 out of 12
Pollen .10 out of 12
Air Quality Not available.
Flu Activity Not available.
SPECI KIND 271706Z VRB03KT 9SM SCT018 SCT027 OVC049 M03/M07 A3011 RMK AO2 T10331067

More Conditions Fewer Conditions

Pressure 30.11 in
Visibility 9.0 miles
Clouds Scattered Clouds 1800 ft
Scattered Clouds 2700 ft
Overcast 4900 ft
Windchill 22 °F
Dew Point 20 °F
Humidity 78%
Rainfall 0.01 in
Snow Depth Not available.
UV 1 out of 12
Pollen .10 out of 12
Air Quality Not available.
Flu Activity Not available.
SPECI KIND 271706Z VRB03KT 9SM SCT018 SCT027 OVC049 M03/M07 A3011 RMK AO2 T10331067

More Conditions Fewer Conditions

10-Day Weather Forecast

Almanac

Astronomy

Jan. 27, 2015 Rise Set
Actual Time
Civil Twilight
Nautical Twilight
Astronomical Twilight
Moon
Length of Visible Light
Length of Day
Tomorrow will be .
, % of the Moon is Illuminated

Today's Extremes

State Highs State Lows

Community

WunderPhotos

Upload Photos

1,790,741 photos uploaded!

WunderBlogs® & News

Nearby

Air Quality

  Air Quality AQ Index Pollutant
Not available.

Snow Depth

Station Depth Elevation

Earthquake Activity

City Distance Mag. Time & Date
Minimum magnitude displayed is 2.5.

Coastal Water Temperatures

Place Temperature

Nearby Weather Stations